Time;durP1;ratioP1;P1;durP2;ratioP2;P2;SDS_P1;SDS_P2;PMS_P1;PMS_P2;Temp;Humidity;BMP_temperature;BMP_pressure;BME280_temperature;BME280_humidity;BME280_pressure;Samples;Min_cycle;Max_cycle;Signal;HPM_P1;HPM_P2
2023/08/29 00:00:32;;;;;;;6.43;3.67;;;;;;;14.22;100.00;101193.63;5034965;28;20048;-73
2023/08/29 00:03:03;;;;;;;6.85;3.33;;;;;;;14.23;100.00;101189.94;5035678;28;20033;-72
2023/08/29 00:05:29;;;;;;;7.93;3.78;;;;;;;14.30;100.00;101178.75;5037349;28;20068;-73
2023/08/29 00:07:54;;;;;;;5.43;4.35;;;;;;;14.34;100.00;101178.44;5037284;28;20097;-72
2023/08/29 00:10:20;;;;;;;6.40;4.43;;;;;;;14.38;100.00;101176.38;5038947;28;20049;-72
2023/08/29 00:12:45;;;;;;;10.75;4.10;;;;;;;14.37;100.00;101180.03;5041232;28;20861;-72
2023/08/29 00:15:11;;;;;;;8.45;4.72;;;;;;;14.35;100.00;101181.97;5041065;28;20045;-71
2023/08/29 00:17:36;;;;;;;8.68;5.15;;;;;;;14.28;100.00;101167.31;5038159;28;20649;-72
2023/08/29 00:20:03;;;;;;;7.47;5.00;;;;;;;14.23;100.00;101159.59;5034486;28;20036;-73
2023/08/29 00:22:29;;;;;;;9.32;4.70;;;;;;;14.22;100.00;101152.53;5028112;28;20041;-72
2023/08/29 00:24:56;;;;;;;11.38;4.60;;;;;;;14.18;100.00;101151.03;5040901;28;20073;-72
2023/08/29 00:27:22;;;;;;;6.50;4.35;;;;;;;14.20;100.00;101149.06;5038525;28;20229;-72
2023/08/29 00:29:47;;;;;;;9.95;5.75;;;;;;;14.17;100.00;101146.63;5029235;28;20449;-73
2023/08/29 00:32:13;;;;;;;10.65;5.40;;;;;;;14.20;100.00;101149.94;5075172;28;21010;-72
2023/08/29 00:34:39;;;;;;;9.25;6.35;;;;;;;14.27;100.00;101160.22;5028403;28;20041;-72
2023/08/29 00:37:04;;;;;;;7.20;6.30;;;;;;;14.25;100.00;101158.50;5044333;28;20038;-73
2023/08/29 00:39:30;;;;;;;9.20;3.88;;;;;;;14.11;100.00;101155.16;5043723;28;20034;-72
2023/08/29 00:41:56;;;;;;;5.07;3.60;;;;;;;14.05;100.00;101153.72;5041522;28;20446;-73
2023/08/29 00:44:21;;;;;;;8.13;6.20;;;;;;;14.10;100.00;101150.72;5042266;28;20061;-72
2023/08/29 00:46:49;;;;;;;6.70;4.10;;;;;;;13.97;100.00;101156.13;5042385;28;20036;-72
2023/08/29 00:49:18;;;;;;;8.68;4.28;;;;;;;13.94;100.00;101161.72;5041281;28;20048;-72
2023/08/29 00:51:45;;;;;;;12.95;4.75;;;;;;;13.85;100.00;101148.97;5035115;28;20061;-72
2023/08/29 00:54:12;;;;;;;7.30;4.40;;;;;;;13.77;100.00;101148.69;5038624;28;20033;-73
2023/08/29 00:56:38;;;;;;;4.95;3.72;;;;;;;13.79;100.00;101161.00;5036967;28;20040;-73
2023/08/29 00:59:04;;;;;;;5.78;3.90;;;;;;;13.79;100.00;101154.78;5034654;28;20038;-73
2023/08/29 01:01:33;;;;;;;9.80;4.03;;;;;;;13.82;100.00;101149.22;5032760;28;20044;-72
2023/08/29 01:03:59;;;;;;;7.43;4.45;;;;;;;13.71;100.00;101148.16;5029655;28;20026;-72
2023/08/29 01:06:25;;;;;;;6.60;3.90;;;;;;;13.68;100.00;101144.84;5030321;28;20052;-73
2023/08/29 01:08:51;;;;;;;8.45;3.78;;;;;;;13.64;100.00;101143.31;5030391;28;20029;-72
2023/08/29 01:11:34;;;;;;;4.85;3.53;;;;;;;13.67;100.00;101151.16;5026840;28;20036;-73
2023/08/29 01:14:05;;;;;;;3.40;2.75;;;;;;;13.57;100.00;101142.91;5061587;28;20136;-71
2023/08/29 01:16:36;;;;;;;6.28;3.30;;;;;;;13.56;100.00;101138.53;5028738;28;20079;-73
2023/08/29 01:19:06;;;;;;;6.55;3.05;;;;;;;13.55;100.00;101131.44;5043033;28;20059;-73
2023/08/29 01:21:57;;;;;;;4.20;3.45;;;;;;;13.51;100.00;101145.19;5027122;28;20049;-73
2023/08/29 01:24:32;;;;;;;5.63;4.05;;;;;;;13.46;100.00;101141.00;5029365;28;20140;-73
2023/08/29 01:27:00;;;;;;;6.75;3.10;;;;;;;13.46;100.00;101145.50;5025155;28;20037;-72
2023/08/29 01:29:27;;;;;;;6.72;3.90;;;;;;;13.40;100.00;101156.63;5025373;28;20107;-73
2023/08/29 01:31:56;;;;;;;4.55;3.80;;;;;;;13.38;100.00;101146.03;5009942;28;20033;-74
2023/08/29 01:34:22;;;;;;;7.72;4.13;;;;;;;13.39;100.00;101152.25;5028348;28;20089;-74
2023/08/29 01:36:48;;;;;;;9.50;6.50;;;;;;;13.36;100.00;101155.16;5028920;28;20089;-73
2023/08/29 01:39:13;;;;;;;6.22;4.78;;;;;;;13.40;100.00;101159.31;5024404;28;20049;-73
2023/08/29 01:41:39;;;;;;;6.63;5.10;;;;;;;13.40;100.00;101162.00;5055947;28;20026;-73
2023/08/29 01:44:06;;;;;;;8.05;4.75;;;;;;;13.43;100.00;101159.09;5028297;28;20037;-73
2023/08/29 01:46:33;;;;;;;6.05;4.60;;;;;;;13.32;100.00;101161.69;5030398;28;20216;-73
2023/08/29 01:49:01;;;;;;;7.53;4.75;;;;;;;13.12;100.00;101155.84;5028879;28;20701;-73
2023/08/29 01:51:27;;;;;;;5.45;4.13;;;;;;;13.15;100.00;101155.66;5028648;28;20042;-74
2023/08/29 01:53:53;;;;;;;11.63;5.53;;;;;;;13.23;100.00;101165.84;5027389;28;20076;-74
2023/08/29 01:56:22;;;;;;;7.25;6.05;;;;;;;13.29;100.00;101160.06;5027736;28;20042;-73
2023/08/29 01:58:51;;;;;;;8.57;5.68;;;;;;;13.19;100.00;101173.19;5058620;28;20048;-73
2023/08/29 02:01:18;;;;;;;6.75;3.70;;;;;;;13.12;100.00;101160.34;5011719;28;20038;-72
2023/08/29 02:03:44;;;;;;;6.70;4.90;;;;;;;13.16;100.00;101177.94;5026993;28;20037;-72
2023/08/29 02:06:10;;;;;;;7.53;5.45;;;;;;;13.15;100.00;101173.50;5020928;28;20079;-73
2023/08/29 02:08:36;;;;;;;8.43;5.25;;;;;;;13.17;100.00;101172.47;5023317;28;20029;-73
2023/08/29 02:11:04;;;;;;;14.20;5.63;;;;;;;13.21;100.00;101171.31;5020384;28;20034;-73
2023/08/29 02:13:30;;;;;;;7.97;5.88;;;;;;;13.21;100.00;101181.16;5020869;28;20053;-72
2023/08/29 02:15:55;;;;;;;11.30;5.65;;;;;;;13.30;100.00;101190.38;5029251;28;20049;-73
2023/08/29 02:18:21;;;;;;;9.25;4.57;;;;;;;13.12;100.00;101184.47;5025174;28;20556;-71
2023/08/29 02:20:46;;;;;;;5.18;4.18;;;;;;;13.13;100.00;101184.34;5026965;28;20037;-73
2023/08/29 02:23:12;;;;;;;6.13;4.18;;;;;;;13.09;100.00;101188.19;5021877;28;20044;-72
2023/08/29 02:25:39;;;;;;;5.03;4.07;;;;;;;13.07;100.00;101187.44;5024122;28;20033;-73
2023/08/29 02:28:04;;;;;;;7.03;4.20;;;;;;;13.12;100.00;101184.47;5025202;28;20159;-73
2023/08/29 02:30:35;;;;;;;6.25;4.70;;;;;;;13.12;100.00;101192.50;5025887;28;20026;-72
2023/08/29 02:33:01;;;;;;;7.72;4.35;;;;;;;13.11;100.00;101182.75;5020151;28;20041;-73
2023/08/29 02:35:26;;;;;;;7.78;4.53;;;;;;;13.10;100.00;101187.25;5026870;28;20494;-73
2023/08/29 02:37:52;;;;;;;12.00;5.55;;;;;;;13.11;100.00;101183.59;5029079;28;20541;-72
2023/08/29 02:40:18;;;;;;;10.48;5.22;;;;;;;13.08;100.00;101194.50;5022039;28;20920;-73
2023/08/29 02:42:43;;;;;;;9.43;5.60;;;;;;;13.10;100.00;101203.31;5046327;28;20867;-74
2023/08/29 02:45:09;;;;;;;12.02;6.35;;;;;;;13.18;100.00;101206.31;5024336;28;21203;-72
2023/08/29 02:47:35;;;;;;;9.57;6.68;;;;;;;13.15;100.00;101200.28;5031127;28;20502;-72
2023/08/29 02:50:01;;;;;;;8.40;5.47;;;;;;;13.12;100.00;101209.41;5030110;28;20825;-73
2023/08/29 02:52:26;;;;;;;9.65;5.95;;;;;;;13.15;100.00;101211.00;5020941;28;20061;-75
2023/08/29 02:54:52;;;;;;;3.40;3.10;;;;;;;13.08;100.00;101217.75;5023691;28;20053;-73
2023/08/29 02:57:17;;;;;;;6.30;5.10;;;;;;;13.01;100.00;101227.19;5025715;28;20041;-73
2023/08/29 02:59:43;;;;;;;12.75;6.45;;;;;;;13.06;100.00;101231.25;5058302;28;20053;-73
2023/08/29 03:02:09;;;;;;;11.65;7.53;;;;;;;12.96;100.00;101235.50;5029463;28;20041;-73
2023/08/29 03:04:35;;;;;;;12.80;7.45;;;;;;;12.87;100.00;101239.66;5030178;28;20038;-74
2023/08/29 03:07:04;;;;;;;12.43;8.13;;;;;;;12.90;100.00;101243.94;5029149;28;20120;-75
2023/08/29 03:09:30;;;;;;;16.73;8.90;;;;;;;12.84;100.00;101252.38;5007785;28;20148;-72
2023/08/29 03:11:55;;;;;;;12.82;7.85;;;;;;;12.97;100.00;101250.59;5024673;28;20053;-72
2023/08/29 03:14:21;;;;;;;9.82;7.82;;;;;;;13.12;100.00;101240.69;5024282;28;20045;-72
2023/08/29 03:16:47;;;;;;;15.38;8.90;;;;;;;13.14;100.00;101231.56;5029298;28;20041;-73
2023/08/29 03:19:12;;;;;;;11.27;6.32;;;;;;;13.11;100.00;101222.91;5030095;28;20488;-73
2023/08/29 03:21:38;;;;;;;8.88;5.57;;;;;;;13.09;100.00;101216.78;5028306;28;20061;-73
2023/08/29 03:24:05;;;;;;;14.48;6.53;;;;;;;13.03;100.00;101215.38;5024629;28;20353;-72
2023/08/29 03:26:31;;;;;;;8.85;6.13;;;;;;;13.11;100.00;101222.91;5031130;28;20037;-72
2023/08/29 03:28:57;;;;;;;11.00;6.82;;;;;;;13.10;100.00;101205.09;5030913;28;20037;-73
2023/08/29 03:31:22;;;;;;;12.45;6.80;;;;;;;13.09;100.00;101209.59;5047057;28;20046;-73
2023/08/29 03:33:48;;;;;;;14.90;7.18;;;;;;;13.05;100.00;101202.78;5031291;28;20045;-73
2023/08/29 03:36:14;;;;;;;10.40;6.88;;;;;;;13.09;100.00;101204.25;5018432;28;20050;-72
2023/08/29 03:38:42;;;;;;;11.82;6.22;;;;;;;13.10;100.00;101203.31;5028290;28;20030;-73
2023/08/29 03:41:08;;;;;;;13.32;6.95;;;;;;;13.15;100.00;101206.53;5034437;28;20034;-74
2023/08/29 03:43:35;;;;;;;8.48;5.85;;;;;;;13.19;100.00;101202.66;5029907;28;20456;-73
2023/08/29 03:46:05;;;;;;;8.38;5.50;;;;;;;13.11;100.00;101193.47;5027395;28;20037;-73
2023/08/29 03:48:31;;;;;;;10.07;7.40;;;;;;;13.07;100.00;101195.47;5019968;28;20036;-73
2023/08/29 03:50:58;;;;;;;11.15;7.03;;;;;;;13.07;100.00;101181.22;5025981;28;20037;-73
2023/08/29 03:53:24;;;;;;;9.15;6.45;;;;;;;13.06;100.00;101184.88;5028878;28;20041;-73
2023/08/29 03:55:51;;;;;;;10.98;7.97;;;;;;;13.07;100.00;101178.56;5047164;28;20046;-72
2023/08/29 03:58:17;;;;;;;9.80;7.38;;;;;;;13.10;100.00;101172.97;5030532;28;20029;-73
2023/08/29 04:00:43;;;;;;;12.02;8.18;;;;;;;13.08;100.00;101169.56;5014396;28;20062;-73
2023/08/29 04:03:09;;;;;;;12.68;7.50;;;;;;;13.02;100.00;101160.13;5030958;28;20030;-72
2023/08/29 04:05:36;;;;;;;8.93;7.05;;;;;;;13.03;100.00;101158.31;5031567;28;20554;-73
2023/08/29 04:08:04;;;;;;;9.52;6.30;;;;;;;13.00;100.00;101145.97;5029868;28;20041;-72
2023/08/29 04:10:35;;;;;;;8.20;6.70;;;;;;;13.03;100.00;101145.78;5033155;28;20136;-72
2023/08/29 04:13:02;;;;;;;;;;;;;;;13.01;100.00;101136.16;5030151;28;20052;-73
2023/08/29 04:15:27;;;;;;;9.25;6.68;;;;;;;13.02;100.00;101129.81;5033082;28;21844;-73
2023/08/29 04:17:53;;;;;;;13.45;7.00;;;;;;;13.03;100.00;101132.38;5039615;28;20065;-71
2023/08/29 04:20:19;;;;;;;11.15;6.50;;;;;;;13.00;100.00;101135.25;5067842;28;20999;-73
2023/08/29 04:22:45;;;;;;;7.78;6.72;;;;;;;12.92;100.00;101133.13;5028853;28;20041;-72
2023/08/29 04:25:11;;;;;;;8.18;6.32;;;;;;;12.93;100.00;101142.88;5034803;28;20041;-73
2023/08/29 04:27:37;;;;;;;10.63;6.38;;;;;;;12.97;100.00;101140.84;5037695;28;20048;-74
2023/08/29 04:30:04;;;;;;;9.20;6.70;;;;;;;12.91;100.00;101127.91;5065183;28;20063;-74
2023/08/29 04:32:34;;;;;;;11.13;7.32;;;;;;;12.92;100.00;101132.28;5032619;28;21112;-73
2023/08/29 04:35:10;;;;;;;9.38;7.55;;;;;;;12.90;100.00;101127.03;5022751;28;20041;-72
2023/08/29 04:37:36;;;;;;;11.93;7.78;;;;;;;12.89;100.00;101130.66;5031773;28;20029;-72
2023/08/29 04:40:10;;;;;;;17.50;9.73;;;;;;;12.81;100.00;101126.81;5029812;28;20280;-73
2023/08/29 04:42:37;;;;;;;13.43;8.90;;;;;;;12.87;100.00;101124.56;5023567;28;20128;-73
2023/08/29 04:45:07;;;;;;;9.23;7.25;;;;;;;12.87;100.00;101129.91;5057952;28;20559;-73
2023/08/29 04:47:33;;;;;;;10.00;7.57;;;;;;;12.86;100.00;101128.19;5035514;28;20037;-72
2023/08/29 04:50:00;;;;;;;14.32;9.10;;;;;;;12.91;100.00;101134.09;5043799;28;20065;-72
2023/08/29 04:52:26;;;;;;;11.90;8.07;;;;;;;12.88;100.00;101128.94;5059513;28;20044;-72
2023/08/29 04:54:53;;;;;;;12.70;7.78;;;;;;;12.91;100.00;101131.44;5038001;28;20112;-73
2023/08/29 04:57:18;;;;;;;14.57;7.47;;;;;;;12.89;100.00;101135.16;5043014;28;20030;-72
2023/08/29 04:59:44;;;;;;;10.43;7.32;;;;;;;12.92;100.00;101133.13;5044333;28;20560;-74
2023/08/29 05:02:10;;;;;;;14.88;7.75;;;;;;;12.90;100.00;101137.75;5036608;28;20052;-73
2023/08/29 05:04:35;;;;;;;13.40;7.93;;;;;;;12.99;100.00;101132.69;5038935;28;20155;-73
2023/08/29 05:07:03;;;;;;;12.30;8.95;;;;;;;13.05;100.00;101137.63;5048013;28;20476;-72
2023/08/29 05:09:29;;;;;;;11.60;8.05;;;;;;;13.09;100.00;101140.00;5046979;28;20034;-72
2023/08/29 05:11:54;;;;;;;12.30;7.65;;;;;;;13.12;100.00;101145.16;5037012;28;20251;-73
2023/08/29 05:14:20;;;;;;;9.98;7.93;;;;;;;13.14;100.00;101143.22;5029392;28;20041;-73
2023/08/29 05:16:46;;;;;;;16.52;7.65;;;;;;;13.17;100.00;101137.66;5042516;28;20127;-73
2023/08/29 05:19:12;;;;;;;15.90;8.02;;;;;;;13.21;100.00;101136.50;5035374;28;20034;-73
2023/08/29 05:21:37;;;;;;;12.45;7.85;;;;;;;13.23;100.00;101124.81;5025406;28;20041;-73
2023/08/29 05:24:07;;;;;;;12.73;7.57;;;;;;;13.24;100.00;101137.25;5041997;28;20034;-73
2023/08/29 05:26:33;;;;;;;9.93;7.80;;;;;;;13.28;100.00;101133.41;5020224;28;20822;-73
2023/08/29 05:28:58;;;;;;;14.60;9.23;;;;;;;13.33;100.00;101137.47;5018511;28;20104;-73
2023/08/29 05:31:25;;;;;;;10.18;7.63;;;;;;;13.35;100.00;101143.56;5020658;28;20056;-72
2023/08/29 05:33:50;;;;;;;11.50;8.05;;;;;;;13.44;100.00;101142.06;5027119;28;20034;-73
2023/08/29 05:36:16;;;;;;;11.63;8.27;;;;;;;13.41;100.00;101145.84;5024540;28;20041;-73
2023/08/29 05:38:41;;;;;;;16.17;9.05;;;;;;;13.45;100.00;101146.44;5028085;28;21028;-73
2023/08/29 05:41:08;;;;;;;12.07;8.05;;;;;;;13.43;100.00;101151.94;5031753;28;20030;-73
2023/08/29 05:43:40;;;;;;;20.63;8.68;;;;;;;13.24;100.00;101153.31;5022549;28;20029;-73
2023/08/29 05:46:05;;;;;;;13.40;8.70;;;;;;;13.24;100.00;101161.34;5025926;28;20042;-73
2023/08/29 05:48:31;;;;;;;9.63;7.45;;;;;;;13.35;100.00;101159.63;5017368;28;20033;-73
2023/08/29 05:50:56;;;;;;;15.30;9.98;;;;;;;13.46;100.00;101159.75;5021644;28;20068;-73
2023/08/29 05:53:22;;;;;;;12.40;7.95;;;;;;;13.55;100.00;101152.88;5021859;28;20080;-74
2023/08/29 05:55:47;;;;;;;11.50;8.35;;;;;;;13.62;100.00;101146.13;5027919;28;20045;-73
2023/08/29 05:58:13;;;;;;;15.25;8.75;;;;;;;13.63;100.00;101152.34;5027196;28;20111;-73
2023/08/29 06:00:39;;;;;;;13.65;7.05;;;;;;;13.61;100.00;101139.06;5025159;28;20107;-72
2023/08/29 06:03:07;;;;;;;9.00;6.45;;;;;;;13.68;100.00;101148.38;5020964;28;20125;-73
2023/08/29 06:05:33;;;;;;;12.90;7.60;;;;;;;13.81;100.00;101142.13;5021060;28;20045;-73
2023/08/29 06:08:02;;;;;;;10.10;7.38;;;;;;;13.91;100.00;101140.50;5024560;28;20045;-73
2023/08/29 06:10:28;;;;;;;11.98;8.48;;;;;;;14.00;100.00;101137.97;5024759;28;20077;-74
2023/08/29 06:12:54;;;;;;;11.85;8.48;;;;;;;14.08;100.00;101142.78;5026273;28;20046;-73
2023/08/29 06:15:19;;;;;;;15.05;8.15;;;;;;;14.18;100.00;101145.66;5029274;28;20054;-72
2023/08/29 06:17:45;;;;;;;15.15;8.95;;;;;;;14.19;100.00;101145.53;5019672;28;20042;-72
2023/08/29 06:20:11;;;;;;;12.13;8.90;;;;;;;14.29;100.00;101148.41;5027894;28;20216;-72
2023/08/29 06:22:37;;;;;;;12.18;9.27;;;;;;;14.45;100.00;101145.44;5024219;28;20034;-73
2023/08/29 06:25:04;;;;;;;10.43;8.30;;;;;;;14.57;100.00;101147.25;5025035;28;20550;-73
2023/08/29 06:27:30;;;;;;;14.52;9.05;;;;;;;14.68;100.00;101152.66;5036973;28;20038;-72
2023/08/29 06:29:55;;;;;;;13.82;9.77;;;;;;;14.81;100.00;101140.97;5025663;28;20065;-72
2023/08/29 06:32:21;;;;;;;13.60;8.38;;;;;;;14.92;100.00;101136.50;5025172;28;20144;-72
2023/08/29 06:34:47;;;;;;;13.27;8.32;;;;;;;15.04;100.00;101137.38;5025460;28;20050;-72
2023/08/29 06:37:13;;;;;;;16.75;8.90;;;;;;;15.12;100.00;101140.34;5023141;28;20042;-73
2023/08/29 06:39:44;;;;;;;18.63;8.98;;;;;;;15.18;100.00;101139.84;5028994;28;20144;-73
2023/08/29 06:42:10;;;;;;;13.52;8.38;;;;;;;15.33;100.00;101135.13;5041745;28;20040;-72
2023/08/29 06:44:36;;;;;;;16.13;8.63;;;;;;;15.45;100.00;101135.97;5031719;28;20044;-72
2023/08/29 06:47:01;;;;;;;16.42;9.07;;;;;;;15.50;100.00;101136.47;5029885;28;20029;-72
2023/08/29 06:49:27;;;;;;;14.98;9.20;;;;;;;15.55;100.00;101131.56;5031102;28;20048;-72
2023/08/29 06:51:52;;;;;;;14.65;8.95;;;;;;;15.68;100.00;101129.66;5027438;28;20047;-73
2023/08/29 06:54:18;;;;;;;15.82;9.55;;;;;;;15.69;100.00;101133.19;5034511;28;20091;-73
2023/08/29 06:56:43;;;;;;;14.02;8.43;;;;;;;15.91;100.00;101129.63;5023888;28;20567;-73
2023/08/29 06:59:10;;;;;;;12.05;8.40;;;;;;;16.05;100.00;101126.66;5029540;28;20803;-73
2023/08/29 07:01:37;;;;;;;13.02;8.57;;;;;;;16.20;100.00;101130.78;5028150;28;20030;-73
2023/08/29 07:04:04;;;;;;;14.77;8.65;;;;;;;16.31;100.00;101136.16;5028737;28;20029;-72
2023/08/29 07:06:30;;;;;;;12.68;8.93;;;;;;;16.41;100.00;101136.22;5028307;28;20076;-73
2023/08/29 07:08:55;;;;;;;14.02;8.65;;;;;;;16.52;100.00;101133.50;5043681;28;20945;-73
2023/08/29 07:11:21;;;;;;;15.63;9.10;;;;;;;16.46;100.00;101135.84;5026926;28;20038;-72
2023/08/29 07:13:46;;;;;;;13.55;8.90;;;;;;;16.58;100.00;101143.75;5025992;28;20058;-73
2023/08/29 07:16:12;;;;;;;11.57;9.00;;;;;;;16.62;100.00;101124.63;5025411;28;20041;-73
2023/08/29 07:18:38;;;;;;;18.40;8.98;;;;;;;16.86;100.00;101129.81;5027200;28;20044;-73
2023/08/29 07:21:03;;;;;;;9.75;8.48;;;;;;;16.97;100.00;101132.47;5022849;28;20040;-72
2023/08/29 07:23:30;;;;;;;13.07;9.02;;;;;;;17.16;100.00;101123.63;5019663;28;20049;-72
2023/08/29 07:25:55;;;;;;;11.77;8.05;;;;;;;17.14;100.00;101122.94;5014499;28;20030;-73
2023/08/29 07:28:21;;;;;;;11.77;8.00;;;;;;;17.04;100.00;101120.16;5017233;28;21084;-72
2023/08/29 07:30:51;;;;;;;16.08;8.63;;;;;;;17.29;100.00;101118.91;5021019;28;20045;-72
2023/08/29 07:33:17;;;;;;;16.65;7.68;;;;;;;17.57;100.00;101120.88;5027706;28;20103;-72
2023/08/29 07:35:45;;;;;;;13.95;7.63;;;;;;;17.71;100.00;101114.25;5022563;28;20083;-72
2023/08/29 07:38:12;;;;;;;14.07;7.25;;;;;;;18.35;100.00;101111.16;5034838;28;20030;-72
2023/08/29 07:40:38;;;;;;;10.85;6.22;;;;;;;18.61;100.00;101119.53;5025876;28;20120;-72
2023/08/29 07:43:08;;;;;;;14.07;7.28;;;;;;;18.57;100.00;101117.25;5030650;28;20043;-72
2023/08/29 07:45:34;;;;;;;12.82;6.95;;;;;;;18.54;100.00;101126.53;5029216;28;20044;-72
2023/08/29 07:48:01;;;;;;;10.60;5.80;;;;;;;18.97;100.00;101117.13;5035696;28;20146;-72
2023/08/29 07:50:27;;;;;;;10.73;5.50;;;;;;;18.87;100.00;101124.38;5033196;28;20037;-73
2023/08/29 07:52:53;;;;;;;8.15;5.57;;;;;;;19.37;100.00;101116.03;5019321;28;20124;-73
2023/08/29 07:55:20;;;;;;;11.75;5.78;;;;;;;19.11;100.00;101121.22;5031557;28;20061;-72
2023/08/29 07:57:46;;;;;;;10.93;5.13;;;;;;;19.38;100.00;101115.06;5029623;28;20963;-72
2023/08/29 08:00:12;;;;;;;10.32;4.78;;;;;;;19.50;100.00;101108.44;5026613;28;20037;-72
2023/08/29 08:02:39;;;;;;;11.32;4.40;;;;;;;19.26;100.00;101122.47;5032762;28;20044;-73
2023/08/29 08:05:13;;;;;;;10.75;4.60;;;;;;;19.61;100.00;101112.84;5029428;28;20807;-73
2023/08/29 08:07:39;;;;;;;9.07;4.30;;;;;;;20.05;100.00;101115.75;5038232;28;20041;-72
2023/08/29 08:10:05;;;;;;;9.25;4.45;;;;;;;19.91;99.42;101111.69;5025855;28;20068;-72
2023/08/29 08:12:32;;;;;;;9.43;4.32;;;;;;;19.80;100.00;101114.59;5026145;28;20046;-72
2023/08/29 08:14:58;;;;;;;9.57;4.43;;;;;;;19.91;100.00;101115.25;5028803;28;20075;-73
2023/08/29 08:17:24;;;;;;;9.50;4.43;;;;;;;19.89;100.00;101121.84;5026542;28;20045;-73
2023/08/29 08:19:50;;;;;;;6.82;4.40;;;;;;;20.16;98.75;101123.66;5027990;28;20048;-72
2023/08/29 08:22:15;;;;;;;6.68;4.80;;;;;;;20.47;95.29;101117.91;5027185;28;20044;-72
2023/08/29 08:24:41;;;;;;;5.85;4.38;;;;;;;20.63;96.94;101115.34;5029046;28;20044;-72
2023/08/29 08:27:07;;;;;;;4.20;3.80;;;;;;;20.82;96.18;101117.03;5035390;28;20039;-72
2023/08/29 08:29:33;;;;;;;10.00;4.75;;;;;;;20.88;95.81;101119.09;5027495;28;20062;-72
2023/08/29 08:31:59;;;;;;;6.68;4.00;;;;;;;20.55;96.80;101120.69;5022022;28;20171;-72
2023/08/29 08:34:25;;;;;;;10.88;4.32;;;;;;;20.68;96.11;101116.59;5040382;28;20164;-72
2023/08/29 08:36:51;;;;;;;7.82;3.60;;;;;;;20.89;94.89;101107.28;5032961;28;20053;-72
2023/08/29 08:39:17;;;;;;;5.40;3.78;;;;;;;21.00;94.05;101115.16;5028999;28;20033;-72
2023/08/29 08:41:43;;;;;;;8.75;3.38;;;;;;;21.00;92.54;101114.28;5025346;28;20030;-73
2023/08/29 08:44:11;;;;;;;8.93;3.25;;;;;;;20.90;91.21;101106.25;5036875;28;20050;-73
2023/08/29 08:46:38;;;;;;;6.38;3.72;;;;;;;20.79;89.38;101107.38;5034009;28;20033;-72
2023/08/29 08:49:04;;;;;;;6.72;2.72;;;;;;;20.83;89.13;101108.72;5029962;28;20143;-73
2023/08/29 08:51:31;;;;;;;5.55;2.78;;;;;;;20.85;88.38;101112.16;5028531;28;20025;-73
2023/08/29 08:53:57;;;;;;;5.38;3.58;;;;;;;20.98;89.93;101114.44;5022187;28;20121;-72
2023/08/29 08:56:24;;;;;;;10.65;3.83;;;;;;;21.07;91.67;101112.63;5031675;28;20049;-72
2023/08/29 08:58:50;;;;;;;6.85;3.40;;;;;;;21.00;88.68;101106.16;5026553;28;20065;-73
2023/08/29 09:01:15;;;;;;;4.60;2.63;;;;;;;20.95;85.66;101107.47;5026829;28;20118;-72
2023/08/29 09:03:45;;;;;;;5.68;2.85;;;;;;;21.01;85.08;101097.84;5025035;28;20030;-73
2023/08/29 09:06:14;;;;;;;5.55;2.85;;;;;;;20.76;88.04;101104.09;5033916;28;20042;-72
2023/08/29 09:08:40;;;;;;;7.10;3.08;;;;;;;21.11;87.10;101103.19;5035564;28;20047;-73
2023/08/29 09:11:06;;;;;;;6.75;3.90;;;;;;;21.20;84.63;101103.06;5030890;28;20354;-72
2023/08/29 09:13:31;;;;;;;5.00;2.67;;;;;;;21.15;81.07;101102.72;5031014;28;20080;-73
2023/08/29 09:16:01;;;;;;;7.43;2.75;;;;;;;21.20;81.11;101099.50;5032404;28;20041;-73
2023/08/29 09:18:31;;;;;;;5.07;2.30;;;;;;;21.44;78.46;101091.56;5024726;28;20065;-73
2023/08/29 09:21:00;;;;;;;5.35;3.05;;;;;;;21.45;80.68;101095.97;5034885;28;20108;-72
2023/08/29 09:23:36;;;;;;;4.65;3.17;;;;;;;21.54;79.93;101104.16;5036493;28;20041;-72
2023/08/29 09:26:01;;;;;;;7.90;3.55;;;;;;;21.56;80.86;101110.25;5027714;28;20044;-72
2023/08/29 09:28:29;;;;;;;5.00;2.65;;;;;;;21.53;80.08;101110.56;5031362;28;20356;-73
2023/08/29 09:31:03;;;;;;;3.25;2.67;;;;;;;21.83;80.93;101111.91;5026916;28;20065;-72
2023/08/29 09:33:29;;;;;;;2.08;1.83;;;;;;;21.41;78.02;101112.72;5058875;28;20042;-72
2023/08/29 09:35:55;;;;;;;4.80;1.90;;;;;;;21.51;77.24;101104.47;5026911;28;20443;-73
2023/08/29 09:38:20;;;;;;;4.07;2.30;;;;;;;21.69;75.73;101110.66;5042230;28;20754;-73
2023/08/29 09:40:52;;;;;;;4.80;2.05;;;;;;;21.89;76.10;101105.81;5041667;28;20044;-73
2023/08/29 09:43:18;;;;;;;2.78;1.80;;;;;;;21.69;76.07;101111.53;5044086;28;20038;-73
2023/08/29 09:45:54;;;;;;;2.70;1.50;;;;;;;22.00;75.36;101110.94;5036770;28;20045;-73
2023/08/29 09:48:20;;;;;;;5.50;1.70;;;;;;;21.82;73.82;101108.31;5080477;27;20144;-73
2023/08/29 09:50:48;;;;;;;4.13;1.73;;;;;;;22.20;72.77;101097.97;5037308;28;20513;-73
2023/08/29 09:53:16;;;;;;;2.50;1.30;;;;;;;22.44;73.66;101102.56;5040988;28;20106;-73
2023/08/29 09:55:48;;;;;;;1.92;1.40;;;;;;;22.23;72.63;101101.16;5016700;28;20196;-73
2023/08/29 09:58:16;;;;;;;3.35;1.55;;;;;;;22.27;73.33;101109.00;5031752;28;20034;-72
2023/08/29 10:00:43;;;;;;;3.88;1.70;;;;;;;22.77;72.85;101102.59;5027138;28;20037;-73
2023/08/29 10:03:11;;;;;;;6.30;2.50;;;;;;;22.67;71.62;101097.31;5034927;28;20097;-73
2023/08/29 10:05:41;;;;;;;5.75;2.78;;;;;;;22.70;73.81;101107.88;5025272;28;20033;-72
2023/08/29 10:08:18;;;;;;;4.93;2.83;;;;;;;22.57;73.14;101105.66;5034437;28;20033;-73
2023/08/29 10:10:44;;;;;;;4.75;2.08;;;;;;;22.76;71.58;101090.88;5027439;28;20030;-73
2023/08/29 10:13:11;;;;;;;3.58;2.05;;;;;;;22.72;69.45;101094.94;5023319;28;20132;-72
2023/08/29 10:15:39;;;;;;;2.13;1.70;;;;;;;22.82;67.83;101092.91;5032724;28;20034;-72
2023/08/29 10:18:07;;;;;;;4.35;1.70;;;;;;;22.97;68.24;101093.94;5035328;28;20899;-73
2023/08/29 10:20:33;;;;;;;7.43;2.15;;;;;;;22.92;66.46;101093.59;5022901;28;20037;-72
2023/08/29 10:23:03;;;;;;;2.83;2.13;;;;;;;22.95;66.46;101089.72;5027336;28;20812;-72
2023/08/29 10:25:30;;;;;;;3.70;1.92;;;;;;;23.03;68.48;101091.56;5024659;28;20030;-72
2023/08/29 10:27:56;;;;;;;3.47;2.50;;;;;;;22.68;68.59;101093.56;5020510;28;20037;-71
2023/08/29 10:30:25;;;;;;;6.88;2.28;;;;;;;22.65;68.83;101093.94;5029941;28;20696;-72
2023/08/29 10:32:53;;;;;;;5.38;2.40;;;;;;;22.54;69.26;101089.69;5025946;28;20030;-73
2023/08/29 10:35:22;;;;;;;3.63;2.17;;;;;;;22.65;68.72;101081.19;5025866;28;20256;-72
2023/08/29 10:37:54;;;;;;;5.10;2.10;;;;;;;22.78;67.54;101077.94;5024763;28;20026;-72
2023/08/29 10:40:20;;;;;;;;;;;;;;;22.71;68.79;101076.94;5028780;28;20061;-72
2023/08/29 10:43:00;;;;;;;4.32;2.75;;;;;;;21.78;70.64;101085.22;5016369;28;20939;-72
2023/08/29 10:45:49;;;;;;;8.23;2.90;;;;;;;22.57;69.20;101070.31;5030984;28;20044;-72
2023/08/29 10:48:18;;;;;;;4.95;2.20;;;;;;;22.88;68.59;101075.03;5026757;28;20125;-72
2023/08/29 10:50:48;;;;;;;5.65;2.35;;;;;;;23.17;68.15;101071.81;5026678;28;20080;-71
2023/08/29 10:53:19;;;;;;;4.07;2.70;;;;;;;23.12;68.83;101077.75;5030930;28;20049;-72
2023/08/29 10:56:00;;;;;;;3.97;2.90;;;;;;;22.84;67.01;101077.28;5028083;28;20037;-71
2023/08/29 10:58:38;;;;;;;5.53;2.50;;;;;;;22.53;66.93;101079.81;5032810;28;20033;-72
2023/08/29 11:01:36;;;;;;;6.07;2.38;;;;;;;22.86;69.00;101067.06;5027401;28;20542;-74
2023/08/29 11:04:12;;;;;;;3.45;2.40;;;;;;;23.07;69.03;101068.44;5023050;28;20036;-72
2023/08/29 11:06:55;;;;;;;2.90;1.30;;;;;;;23.05;66.74;101057.72;5028136;28;20041;-72
2023/08/29 11:09:22;;;;;;;6.70;1.42;;;;;;;23.33;66.73;101055.41;5023017;28;20040;-72
2023/08/29 11:12:14;;;;;;;2.35;1.75;;;;;;;23.04;66.96;101050.56;5023141;28;20034;-70
2023/08/29 11:15:09;;;;;;;2.05;1.42;;;;;;;23.39;67.23;101051.16;5027837;28;20061;-72
2023/08/29 11:17:36;;;;;;;3.38;0.95;;;;;;;23.26;67.50;101046.28;5031398;28;20057;-71